Ariel — 4XJK — position and weather

sailwx.info

Track history (hours):
 
Tides and Currents Weather Stations Pressure Air Temp Water Temp Dewpoint Dewpoint Depression Visibility Wind Speed Wind Dir Waves Ship Positions

Ariel

Last reported at 2016-Sep-29 08:33 UTC. Time now 2016-Sep-29 10:15 UTC.
Position N 32°49' E 035°01'.

Length 29 m; draft 3.8 m.

Type: Tug. MMSI: 428000122.

Date/timePositionNaut miles runAvg speedWind from/ knotsBaromVisibWave heightAir tempDewpointWater temp
2016-Sep-29 08:33N 32°49' E 035°01'1 0.6
2016-Sep-29 07:33N 32°49' E 035°00'0 0.1
2016-Sep-29 00:33N 32°49' E 035°00'0 0.0
2016-Sep-28 21:33N 32°49' E 035°00'1 0.5
2016-Sep-28 19:33N 32°49' E 035°02'1 0.3
2016-Sep-28 16:33N 32°49' E 035°00'1 0.5
2016-Sep-28 15:33N 32°49' E 034°60'1 0.2
2016-Sep-28 12:33N 32°49' E 035°00'1 0.2
2016-Sep-28 08:34N 32°49' E 035°02'0 0.0
2016-Sep-28 03:34N 32°49' E 035°02'0 0.0
2016-Sep-28 02:34N 32°49' E 035°02'0 0.0
2016-Sep-28 01:34N 32°49' E 035°02'0 0.0
2016-Sep-27 23:34N 32°49' E 035°02'0 0.0
2016-Sep-27 19:34N 32°49' E 035°02'0 0.0
2016-Sep-27 14:34N 32°49' E 035°02'0 0.0
2016-Sep-27 13:34N 32°49' E 035°02'0 0.0
2016-Sep-27 10:34N 32°49' E 035°02'0 0.0
2016-Sep-27 00:34N 32°49' E 035°02'0 0.0
2016-Sep-26 20:34N 32°49' E 035°02'0 0.0
2016-Sep-26 19:34N 32°49' E 035°02'0 0.0
2016-Sep-26 15:34N 32°49' E 035°02'0 0.0
2016-Sep-26 13:34N 32°49' E 035°02'0 0.0
2016-Sep-26 11:34N 32°49' E 035°02'0 0.0
2016-Sep-26 08:34N 32°49' E 035°02'0 0.0
2016-Sep-26 02:34N 32°49' E 035°02'0 0.0
2016-Sep-26 01:34N 32°49' E 035°02'0 0.0
2016-Sep-26 00:34N 32°49' E 035°02'0 0.0
2016-Sep-25 21:34N 32°49' E 035°02'0 0.0
2016-Sep-25 17:34N 32°49' E 035°02'0 0.0
2016-Sep-25 15:30N 32°49' E 035°02'0 0.0
2016-Sep-25 14:34N 32°49' E 035°02'0 0.0
2016-Sep-25 12:34N 32°49' E 035°02'0 0.0
2016-Sep-25 11:33N 32°49' E 035°02'0 0.0
2016-Sep-25 10:34N 32°49' E 035°02'0 0.0
2016-Sep-25 09:34N 32°49' E 035°02'0 0.0
2016-Sep-25 07:34N 32°49' E 035°02'0 0.0
2016-Sep-25 04:34N 32°49' E 035°02'0 0.0
2016-Sep-25 00:34N 32°49' E 035°02'0 0.0
2016-Sep-24 22:34N 32°49' E 035°02'0 0.0
2016-Sep-24 21:34N 32°49' E 035°02'0 0.0
2016-Sep-24 19:34N 32°49' E 035°02'0 0.0
2016-Sep-24 18:33N 32°49' E 035°02'0 0.0
2016-Sep-24 17:34N 32°49' E 035°02'0 0.0
2016-Sep-24 16:33N 32°49' E 035°02'0 0.0
2016-Sep-24 14:34N 32°49' E 035°02'0 0.0
2016-Sep-24 12:34N 32°49' E 035°02'0 0.0
2016-Sep-24 10:33N 32°49' E 035°02'0 0.0
2016-Sep-24 09:34N 32°49' E 035°02'0 0.0
2016-Sep-24 03:34N 32°49' E 035°02'0 0.0
2016-Sep-24 02:33N 32°49' E 035°02'0 0.0
2016-Sep-24 01:33N 32°49' E 035°02'0 0.0
2016-Sep-24 00:33N 32°49' E 035°02'0 0.0
2016-Sep-23 19:34N 32°49' E 035°02'0 0.0
2016-Sep-23 17:33N 32°49' E 035°02'0 0.0
2016-Sep-23 16:34N 32°49' E 035°02'0 0.0
2016-Sep-23 15:34N 32°49' E 035°02'0 0.0
2016-Sep-23 13:33N 32°49' E 035°02'0 0.0
2016-Sep-23 09:33N 32°49' E 035°02'0 0.0
2016-Sep-23 06:33N 32°49' E 035°02'0 0.0
2016-Sep-23 04:33N 32°49' E 035°02'0 0.0
2016-Sep-23 03:33N 32°49' E 035°02'0 0.0
2016-Sep-23 02:33N 32°49' E 035°02'0 0.0
2016-Sep-23 01:33N 32°49' E 035°02'0 0.0
2016-Sep-23 00:33N 32°49' E 035°02'0 0.0
2016-Sep-22 23:33N 32°49' E 035°02'0 0.0
2016-Sep-22 20:33N 32°49' E 035°02'0 0.0
2016-Sep-22 12:33N 32°49' E 035°02'0 0.0
2016-Sep-22 04:33N 32°49' E 035°02'0 0.0
2016-Sep-22 03:33N 32°49' E 035°02'0 0.0
2016-Sep-22 00:33N 32°49' E 035°02'0 0.0
2016-Sep-21 23:34N 32°49' E 035°02'0 0.0
2016-Sep-21 22:33N 32°49' E 035°02'0 0.0
2016-Sep-21 19:33N 32°49' E 035°02'0 0.0
2016-Sep-21 16:33N 32°49' E 035°02'0 0.0
2016-Sep-21 09:33N 32°49' E 035°02'0 0.0
2016-Sep-21 08:33N 32°49' E 035°02'0 0.0
2016-Sep-21 05:33N 32°49' E 035°02'0 0.0
2016-Sep-21 03:33N 32°49' E 035°02'0 0.0
2016-Sep-21 02:33N 32°49' E 035°02'0 0.0
2016-Sep-20 17:33N 32°49' E 035°02'0 0.0
2016-Sep-20 14:33N 32°49' E 035°02'0 0.0
2016-Sep-20 13:33N 32°49' E 035°02'0 0.0
2016-Sep-20 10:33N 32°49' E 035°02'0 0.0
2016-Sep-20 08:33N 32°49' E 035°02'0 0.0
2016-Sep-20 07:33N 32°49' E 035°02'0 0.0
2016-Sep-20 06:33N 32°49' E 035°02'0 0.0
2016-Sep-20 02:33N 32°49' E 035°02'0 0.0
2016-Sep-19 23:33N 32°49' E 035°02'0 0.0
2016-Sep-19 19:33N 32°49' E 035°02'0 0.0
2016-Sep-19 18:33N 32°49' E 035°02'0 0.0
2016-Sep-19 16:33N 32°49' E 035°02'0 0.0
2016-Sep-19 14:34N 32°49' E 035°02'0 0.0
2016-Sep-19 13:34N 32°49' E 035°02'0 0.0
2016-Sep-19 12:33N 32°49' E 035°02'0 0.0
2016-Sep-19 11:33N 32°49' E 035°02'0 0.0
2016-Sep-19 09:33N 32°49' E 035°02'  
Track history (hours):
 
Tides and Currents Weather Stations Pressure Air Temp Water Temp Dewpoint Dewpoint Depression Visibility Wind Speed Wind Dir Waves Ship Positions

Ariel

Last reported at 2016-Sep-29 08:33 UTC. Time now 2016-Sep-29 10:15 UTC.
Position N 32°49' E 035°01'.

Length 29 m; draft 3.8 m.

Type: Tug. MMSI: 428000122.

Date/timePositionNaut miles runAvg speedWind from/ knotsBaromVisibWave heightAir tempDewpointWater temp
2016-Sep-29 08:33N 32°49' E 035°01'1 0.6
2016-Sep-29 07:33N 32°49' E 035°00'0 0.1
2016-Sep-29 00:33N 32°49' E 035°00'0 0.0
2016-Sep-28 21:33N 32°49' E 035°00'1 0.5
2016-Sep-28 19:33N 32°49' E 035°02'1 0.3
2016-Sep-28 16:33N 32°49' E 035°00'1 0.5
2016-Sep-28 15:33N 32°49' E 034°60'1 0.2
2016-Sep-28 12:33N 32°49' E 035°00'1 0.2
2016-Sep-28 08:34N 32°49' E 035°02'0 0.0
2016-Sep-28 03:34N 32°49' E 035°02'0 0.0
2016-Sep-28 02:34N 32°49' E 035°02'0 0.0
2016-Sep-28 01:34N 32°49' E 035°02'0 0.0
2016-Sep-27 23:34N 32°49' E 035°02'0 0.0
2016-Sep-27 19:34N 32°49' E 035°02'0 0.0
2016-Sep-27 14:34N 32°49' E 035°02'0 0.0
2016-Sep-27 13:34N 32°49' E 035°02'0 0.0
2016-Sep-27 10:34N 32°49' E 035°02'0 0.0
2016-Sep-27 00:34N 32°49' E 035°02'0 0.0
2016-Sep-26 20:34N 32°49' E 035°02'0 0.0
2016-Sep-26 19:34N 32°49' E 035°02'0 0.0
2016-Sep-26 15:34N 32°49' E 035°02'0 0.0
2016-Sep-26 13:34N 32°49' E 035°02'0 0.0
2016-Sep-26 11:34N 32°49' E 035°02'0 0.0
2016-Sep-26 08:34N 32°49' E 035°02'0 0.0
2016-Sep-26 02:34N 32°49' E 035°02'0 0.0
2016-Sep-26 01:34N 32°49' E 035°02'0 0.0
2016-Sep-26 00:34N 32°49' E 035°02'0 0.0
2016-Sep-25 21:34N 32°49' E 035°02'0 0.0
2016-Sep-25 17:34N 32°49' E 035°02'0 0.0
2016-Sep-25 15:30N 32°49' E 035°02'0 0.0
2016-Sep-25 14:34N 32°49' E 035°02'0 0.0
2016-Sep-25 12:34N 32°49' E 035°02'0 0.0
2016-Sep-25 11:33N 32°49' E 035°02'0 0.0
2016-Sep-25 10:34N 32°49' E 035°02'0 0.0
2016-Sep-25 09:34N 32°49' E 035°02'0 0.0
2016-Sep-25 07:34N 32°49' E 035°02'0 0.0
2016-Sep-25 04:34N 32°49' E 035°02'0 0.0
2016-Sep-25 00:34N 32°49' E 035°02'0 0.0
2016-Sep-24 22:34N 32°49' E 035°02'0 0.0
2016-Sep-24 21:34N 32°49' E 035°02'0 0.0
2016-Sep-24 19:34N 32°49' E 035°02'0 0.0
2016-Sep-24 18:33N 32°49' E 035°02'0 0.0
2016-Sep-24 17:34N 32°49' E 035°02'0 0.0
2016-Sep-24 16:33N 32°49' E 035°02'0 0.0
2016-Sep-24 14:34N 32°49' E 035°02'0 0.0
2016-Sep-24 12:34N 32°49' E 035°02'0 0.0
2016-Sep-24 10:33N 32°49' E 035°02'0 0.0
2016-Sep-24 09:34N 32°49' E 035°02'0 0.0
2016-Sep-24 03:34N 32°49' E 035°02'0 0.0
2016-Sep-24 02:33N 32°49' E 035°02'0 0.0
2016-Sep-24 01:33N 32°49' E 035°02'0 0.0
2016-Sep-24 00:33N 32°49' E 035°02'0 0.0
2016-Sep-23 19:34N 32°49' E 035°02'0 0.0
2016-Sep-23 17:33N 32°49' E 035°02'0 0.0
2016-Sep-23 16:34N 32°49' E 035°02'0 0.0
2016-Sep-23 15:34N 32°49' E 035°02'0 0.0
2016-Sep-23 13:33N 32°49' E 035°02'0 0.0
2016-Sep-23 09:33N 32°49' E 035°02'0 0.0
2016-Sep-23 06:33N 32°49' E 035°02'0 0.0
2016-Sep-23 04:33N 32°49' E 035°02'0 0.0
2016-Sep-23 03:33N 32°49' E 035°02'0 0.0
2016-Sep-23 02:33N 32°49' E 035°02'0 0.0
2016-Sep-23 01:33N 32°49' E 035°02'0 0.0
2016-Sep-23 00:33N 32°49' E 035°02'0 0.0
2016-Sep-22 23:33N 32°49' E 035°02'0 0.0
2016-Sep-22 20:33N 32°49' E 035°02'0 0.0
2016-Sep-22 12:33N 32°49' E 035°02'0 0.0
2016-Sep-22 04:33N 32°49' E 035°02'0 0.0
2016-Sep-22 03:33N 32°49' E 035°02'0 0.0
2016-Sep-22 00:33N 32°49' E 035°02'0 0.0
2016-Sep-21 23:34N 32°49' E 035°02'0 0.0
2016-Sep-21 22:33N 32°49' E 035°02'0 0.0
2016-Sep-21 19:33N 32°49' E 035°02'0 0.0
2016-Sep-21 16:33N 32°49' E 035°02'0 0.0
2016-Sep-21 09:33N 32°49' E 035°02'0 0.0
2016-Sep-21 08:33N 32°49' E 035°02'0 0.0
2016-Sep-21 05:33N 32°49' E 035°02'0 0.0
2016-Sep-21 03:33N 32°49' E 035°02'0 0.0
2016-Sep-21 02:33N 32°49' E 035°02'0 0.0
2016-Sep-20 17:33N 32°49' E 035°02'0 0.0
2016-Sep-20 14:33N 32°49' E 035°02'0 0.0
2016-Sep-20 13:33N 32°49' E 035°02'0 0.0
2016-Sep-20 10:33N 32°49' E 035°02'0 0.0
2016-Sep-20 08:33N 32°49' E 035°02'0 0.0
2016-Sep-20 07:33N 32°49' E 035°02'0 0.0
2016-Sep-20 06:33N 32°49' E 035°02'0 0.0
2016-Sep-20 02:33N 32°49' E 035°02'0 0.0
2016-Sep-19 23:33N 32°49' E 035°02'0 0.0
2016-Sep-19 19:33N 32°49' E 035°02'0 0.0
2016-Sep-19 18:33N 32°49' E 035°02'0 0.0
2016-Sep-19 16:33N 32°49' E 035°02'0 0.0
2016-Sep-19 14:34N 32°49' E 035°02'0 0.0
2016-Sep-19 13:34N 32°49' E 035°02'0 0.0
2016-Sep-19 12:33N 32°49' E 035°02'0 0.0
2016-Sep-19 11:33N 32°49' E 035°02'0 0.0
2016-Sep-19 09:33N 32°49' E 035°02'  

Dump ship's entire track history